sensor_id;sensor_type;location;lat;lon;timestamp;P1;durP1;ratioP1;P2;durP2;ratioP2
3415;SDS011;1721;51.238;9.562;2024-02-26T00:00:34;3.40;;;1.20;;
3415;SDS011;1721;51.238;9.562;2024-02-26T00:03:00;2.53;;;1.00;;
3415;SDS011;1721;51.238;9.562;2024-02-26T00:05:25;4.05;;;1.17;;
3415;SDS011;1721;51.238;9.562;2024-02-26T00:07:51;3.53;;;1.10;;
3415;SDS011;1721;51.238;9.562;2024-02-26T00:10:17;3.53;;;1.40;;
3415;SDS011;1721;51.238;9.562;2024-02-26T00:12:43;1.83;;;0.90;;
3415;SDS011;1721;51.238;9.562;2024-02-26T00:15:09;5.07;;;1.57;;
3415;SDS011;1721;51.238;9.562;2024-02-26T00:17:35;3.20;;;1.25;;
3415;SDS011;1721;51.238;9.562;2024-02-26T00:20:01;2.37;;;1.47;;
3415;SDS011;1721;51.238;9.562;2024-02-26T00:22:29;2.47;;;0.98;;
3415;SDS011;1721;51.238;9.562;2024-02-26T00:24:55;3.08;;;0.98;;
3415;SDS011;1721;51.238;9.562;2024-02-26T00:27:21;7.17;;;1.20;;
3415;SDS011;1721;51.238;9.562;2024-02-26T00:29:46;5.10;;;1.20;;
3415;SDS011;1721;51.238;9.562;2024-02-26T00:32:12;2.37;;;0.97;;
3415;SDS011;1721;51.238;9.562;2024-02-26T00:34:37;1.83;;;0.90;;
3415;SDS011;1721;51.238;9.562;2024-02-26T00:37:03;3.23;;;1.13;;
3415;SDS011;1721;51.238;9.562;2024-02-26T00:39:28;5.57;;;1.03;;
3415;SDS011;1721;51.238;9.562;2024-02-26T00:41:54;3.43;;;1.17;;
3415;SDS011;1721;51.238;9.562;2024-02-26T00:44:19;2.60;;;1.37;;
3415;SDS011;1721;51.238;9.562;2024-02-26T00:46:45;4.67;;;1.10;;
3415;SDS011;1721;51.238;9.562;2024-02-26T00:49:10;3.10;;;1.00;;
3415;SDS011;1721;51.238;9.562;2024-02-26T00:51:36;3.50;;;1.07;;
3415;SDS011;1721;51.238;9.562;2024-02-26T00:54:02;3.83;;;1.10;;
3415;SDS011;1721;51.238;9.562;2024-02-26T00:56:27;2.20;;;1.10;;
3415;SDS011;1721;51.238;9.562;2024-02-26T00:58:53;1.83;;;0.87;;
3415;SDS011;1721;51.238;9.562;2024-02-26T01:01:18;3.03;;;1.13;;
3415;SDS011;1721;51.238;9.562;2024-02-26T01:03:44;2.40;;;1.02;;
3415;SDS011;1721;51.238;9.562;2024-02-26T01:06:10;2.60;;;0.93;;
3415;SDS011;1721;51.238;9.562;2024-02-26T01:08:35;3.60;;;1.00;;
3415;SDS011;1721;51.238;9.562;2024-02-26T01:11:02;2.30;;;1.05;;
3415;SDS011;1721;51.238;9.562;2024-02-26T01:13:28;6.50;;;1.87;;
3415;SDS011;1721;51.238;9.562;2024-02-26T01:15:54;2.60;;;1.00;;
3415;SDS011;1721;51.238;9.562;2024-02-26T01:18:19;2.23;;;0.97;;
3415;SDS011;1721;51.238;9.562;2024-02-26T01:20:45;2.30;;;0.93;;
3415;SDS011;1721;51.238;9.562;2024-02-26T01:23:11;2.13;;;1.00;;
3415;SDS011;1721;51.238;9.562;2024-02-26T01:25:37;4.20;;;1.27;;
3415;SDS011;1721;51.238;9.562;2024-02-26T01:28:04;2.80;;;0.95;;
3415;SDS011;1721;51.238;9.562;2024-02-26T01:30:30;3.78;;;1.10;;
3415;SDS011;1721;51.238;9.562;2024-02-26T01:32:56;3.73;;;1.40;;
3415;SDS011;1721;51.238;9.562;2024-02-26T01:35:21;2.50;;;1.10;;
3415;SDS011;1721;51.238;9.562;2024-02-26T01:37:47;6.17;;;1.20;;
3415;SDS011;1721;51.238;9.562;2024-02-26T01:40:12;1.93;;;0.83;;
3415;SDS011;1721;51.238;9.562;2024-02-26T01:42:42;4.00;;;1.30;;
3415;SDS011;1721;51.238;9.562;2024-02-26T01:45:10;2.67;;;1.13;;
3415;SDS011;1721;51.238;9.562;2024-02-26T01:47:41;2.13;;;0.80;;
3415;SDS011;1721;51.238;9.562;2024-02-26T01:50:07;2.50;;;1.10;;
3415;SDS011;1721;51.238;9.562;2024-02-26T01:52:33;4.45;;;1.52;;
3415;SDS011;1721;51.238;9.562;2024-02-26T01:54:59;3.80;;;1.80;;
3415;SDS011;1721;51.238;9.562;2024-02-26T01:57:26;2.65;;;0.90;;
3415;SDS011;1721;51.238;9.562;2024-02-26T01:59:52;3.30;;;1.17;;
3415;SDS011;1721;51.238;9.562;2024-02-26T02:02:18;2.63;;;1.50;;
3415;SDS011;1721;51.238;9.562;2024-02-26T02:04:44;3.43;;;1.50;;
3415;SDS011;1721;51.238;9.562;2024-02-26T02:07:09;2.97;;;1.00;;
3415;SDS011;1721;51.238;9.562;2024-02-26T02:09:35;2.43;;;1.00;;
3415;SDS011;1721;51.238;9.562;2024-02-26T02:12:01;4.33;;;1.23;;
3415;SDS011;1721;51.238;9.562;2024-02-26T02:14:27;2.47;;;1.00;;
3415;SDS011;1721;51.238;9.562;2024-02-26T02:16:53;2.70;;;1.03;;
3415;SDS011;1721;51.238;9.562;2024-02-26T02:19:18;2.50;;;1.00;;
3415;SDS011;1721;51.238;9.562;2024-02-26T02:21:44;3.63;;;1.10;;
3415;SDS011;1721;51.238;9.562;2024-02-26T02:24:09;3.77;;;1.43;;
3415;SDS011;1721;51.238;9.562;2024-02-26T02:26:35;3.63;;;0.97;;
3415;SDS011;1721;51.238;9.562;2024-02-26T02:29:00;1.70;;;0.80;;
3415;SDS011;1721;51.238;9.562;2024-02-26T02:31:27;2.88;;;1.33;;
3415;SDS011;1721;51.238;9.562;2024-02-26T02:33:53;3.40;;;1.17;;
3415;SDS011;1721;51.238;9.562;2024-02-26T02:36:19;1.80;;;0.93;;
3415;SDS011;1721;51.238;9.562;2024-02-26T02:38:51;2.50;;;1.20;;
3415;SDS011;1721;51.238;9.562;2024-02-26T02:41:16;2.60;;;1.00;;
3415;SDS011;1721;51.238;9.562;2024-02-26T02:43:42;2.90;;;1.00;;
3415;SDS011;1721;51.238;9.562;2024-02-26T02:46:08;4.97;;;1.93;;
3415;SDS011;1721;51.238;9.562;2024-02-26T02:48:33;4.40;;;1.57;;
3415;SDS011;1721;51.238;9.562;2024-02-26T02:50:59;3.60;;;1.00;;
3415;SDS011;1721;51.238;9.562;2024-02-26T02:53:24;2.50;;;1.10;;
3415;SDS011;1721;51.238;9.562;2024-02-26T02:55:50;2.60;;;1.43;;
3415;SDS011;1721;51.238;9.562;2024-02-26T02:58:15;4.43;;;1.30;;
3415;SDS011;1721;51.238;9.562;2024-02-26T03:00:41;3.90;;;1.00;;
3415;SDS011;1721;51.238;9.562;2024-02-26T03:03:06;8.27;;;1.93;;
3415;SDS011;1721;51.238;9.562;2024-02-26T03:05:32;2.17;;;1.07;;
3415;SDS011;1721;51.238;9.562;2024-02-26T03:07:57;3.40;;;1.57;;
3415;SDS011;1721;51.238;9.562;2024-02-26T03:10:23;4.37;;;1.20;;
3415;SDS011;1721;51.238;9.562;2024-02-26T03:12:49;3.43;;;1.10;;
3415;SDS011;1721;51.238;9.562;2024-02-26T03:15:15;1.80;;;0.80;;
3415;SDS011;1721;51.238;9.562;2024-02-26T03:17:40;2.83;;;1.10;;
3415;SDS011;1721;51.238;9.562;2024-02-26T03:20:06;3.00;;;0.93;;
3415;SDS011;1721;51.238;9.562;2024-02-26T03:22:34;1.95;;;0.90;;
3415;SDS011;1721;51.238;9.562;2024-02-26T03:25:00;2.60;;;0.90;;
3415;SDS011;1721;51.238;9.562;2024-02-26T03:27:26;4.07;;;1.30;;
3415;SDS011;1721;51.238;9.562;2024-02-26T03:29:51;3.73;;;1.13;;
3415;SDS011;1721;51.238;9.562;2024-02-26T03:32:17;3.50;;;0.88;;
3415;SDS011;1721;51.238;9.562;2024-02-26T03:34:43;3.50;;;1.00;;
3415;SDS011;1721;51.238;9.562;2024-02-26T03:37:09;2.10;;;0.90;;
3415;SDS011;1721;51.238;9.562;2024-02-26T03:39:35;2.75;;;1.00;;
3415;SDS011;1721;51.238;9.562;2024-02-26T03:42:02;3.17;;;1.13;;
3415;SDS011;1721;51.238;9.562;2024-02-26T03:44:28;3.75;;;1.20;;
3415;SDS011;1721;51.238;9.562;2024-02-26T03:46:53;2.53;;;1.10;;
3415;SDS011;1721;51.238;9.562;2024-02-26T03:49:19;3.00;;;1.10;;
3415;SDS011;1721;51.238;9.562;2024-02-26T03:51:44;2.00;;;0.83;;
3415;SDS011;1721;51.238;9.562;2024-02-26T03:54:10;2.60;;;1.03;;
3415;SDS011;1721;51.238;9.562;2024-02-26T03:56:35;2.50;;;1.07;;
3415;SDS011;1721;51.238;9.562;2024-02-26T03:59:01;7.97;;;1.10;;
3415;SDS011;1721;51.238;9.562;2024-02-26T04:01:27;1.93;;;0.77;;
3415;SDS011;1721;51.238;9.562;2024-02-26T04:03:53;2.07;;;0.83;;
3415;SDS011;1721;51.238;9.562;2024-02-26T04:06:19;2.80;;;1.05;;
3415;SDS011;1721;51.238;9.562;2024-02-26T04:08:46;8.25;;;1.30;;
3415;SDS011;1721;51.238;9.562;2024-02-26T04:11:12;2.97;;;1.65;;
3415;SDS011;1721;51.238;9.562;2024-02-26T04:13:38;2.45;;;1.23;;
3415;SDS011;1721;51.238;9.562;2024-02-26T04:16:04;3.87;;;0.93;;
3415;SDS011;1721;51.238;9.562;2024-02-26T04:18:31;5.47;;;1.60;;
3415;SDS011;1721;51.238;9.562;2024-02-26T04:20:57;2.30;;;1.00;;
3415;SDS011;1721;51.238;9.562;2024-02-26T04:23:22;5.47;;;1.43;;
3415;SDS011;1721;51.238;9.562;2024-02-26T04:25:48;3.53;;;1.00;;
3415;SDS011;1721;51.238;9.562;2024-02-26T04:28:14;2.10;;;0.83;;
3415;SDS011;1721;51.238;9.562;2024-02-26T04:30:39;2.17;;;1.07;;
3415;SDS011;1721;51.238;9.562;2024-02-26T04:33:06;2.70;;;1.15;;
3415;SDS011;1721;51.238;9.562;2024-02-26T04:35:31;2.93;;;1.33;;
3415;SDS011;1721;51.238;9.562;2024-02-26T04:37:57;2.50;;;1.27;;
3415;SDS011;1721;51.238;9.562;2024-02-26T04:40:23;2.43;;;1.00;;
3415;SDS011;1721;51.238;9.562;2024-02-26T04:42:49;7.65;;;1.00;;
3415;SDS011;1721;51.238;9.562;2024-02-26T04:45:14;4.03;;;1.40;;
3415;SDS011;1721;51.238;9.562;2024-02-26T04:47:40;4.30;;;1.67;;
3415;SDS011;1721;51.238;9.562;2024-02-26T04:50:06;3.53;;;1.33;;
3415;SDS011;1721;51.238;9.562;2024-02-26T04:52:32;4.50;;;1.45;;
3415;SDS011;1721;51.238;9.562;2024-02-26T04:54:57;4.87;;;1.50;;
3415;SDS011;1721;51.238;9.562;2024-02-26T04:57:24;4.70;;;1.85;;
3415;SDS011;1721;51.238;9.562;2024-02-26T04:59:51;5.05;;;1.92;;
3415;SDS011;1721;51.238;9.562;2024-02-26T05:02:16;4.77;;;1.40;;
3415;SDS011;1721;51.238;9.562;2024-02-26T05:04:42;3.20;;;1.00;;
3415;SDS011;1721;51.238;9.562;2024-02-26T05:07:08;3.53;;;1.30;;
3415;SDS011;1721;51.238;9.562;2024-02-26T05:09:34;3.60;;;1.57;;
3415;SDS011;1721;51.238;9.562;2024-02-26T05:12:00;4.55;;;1.10;;
3415;SDS011;1721;51.238;9.562;2024-02-26T05:14:25;2.50;;;1.10;;
3415;SDS011;1721;51.238;9.562;2024-02-26T05:16:51;2.77;;;1.27;;
3415;SDS011;1721;51.238;9.562;2024-02-26T05:19:16;2.50;;;1.13;;
3415;SDS011;1721;51.238;9.562;2024-02-26T05:21:42;4.43;;;1.53;;
3415;SDS011;1721;51.238;9.562;2024-02-26T05:24:09;1.77;;;0.80;;
3415;SDS011;1721;51.238;9.562;2024-02-26T05:26:35;2.37;;;1.00;;
3415;SDS011;1721;51.238;9.562;2024-02-26T05:29:00;4.33;;;1.07;;
3415;SDS011;1721;51.238;9.562;2024-02-26T05:31:26;2.50;;;1.03;;
3415;SDS011;1721;51.238;9.562;2024-02-26T05:33:52;3.33;;;1.30;;
3415;SDS011;1721;51.238;9.562;2024-02-26T05:36:19;3.97;;;1.20;;
3415;SDS011;1721;51.238;9.562;2024-02-26T05:38:48;1.48;;;0.73;;
3415;SDS011;1721;51.238;9.562;2024-02-26T05:41:15;3.43;;;1.60;;
3415;SDS011;1721;51.238;9.562;2024-02-26T05:43:41;7.50;;;1.70;;
3415;SDS011;1721;51.238;9.562;2024-02-26T05:46:07;6.07;;;1.30;;
3415;SDS011;1721;51.238;9.562;2024-02-26T05:48:33;3.88;;;1.17;;
3415;SDS011;1721;51.238;9.562;2024-02-26T05:50:59;7.63;;;1.40;;
3415;SDS011;1721;51.238;9.562;2024-02-26T05:53:24;2.80;;;1.20;;
3415;SDS011;1721;51.238;9.562;2024-02-26T05:55:50;2.60;;;1.13;;
3415;SDS011;1721;51.238;9.562;2024-02-26T05:58:16;4.17;;;1.47;;
3415;SDS011;1721;51.238;9.562;2024-02-26T06:00:41;5.30;;;1.30;;
3415;SDS011;1721;51.238;9.562;2024-02-26T06:03:07;4.17;;;1.23;;
3415;SDS011;1721;51.238;9.562;2024-02-26T06:05:32;3.27;;;1.53;;
3415;SDS011;1721;51.238;9.562;2024-02-26T06:07:58;2.20;;;0.90;;
3415;SDS011;1721;51.238;9.562;2024-02-26T06:10:23;6.50;;;1.47;;
3415;SDS011;1721;51.238;9.562;2024-02-26T06:12:49;2.10;;;1.00;;
3415;SDS011;1721;51.238;9.562;2024-02-26T06:15:14;4.03;;;1.47;;
3415;SDS011;1721;51.238;9.562;2024-02-26T06:17:40;2.20;;;1.03;;
3415;SDS011;1721;51.238;9.562;2024-02-26T06:20:06;2.10;;;1.00;;
3415;SDS011;1721;51.238;9.562;2024-02-26T06:22:36;3.22;;;1.48;;
3415;SDS011;1721;51.238;9.562;2024-02-26T06:25:02;4.20;;;1.20;;
3415;SDS011;1721;51.238;9.562;2024-02-26T06:27:27;2.10;;;0.90;;
3415;SDS011;1721;51.238;9.562;2024-02-26T06:29:53;3.17;;;1.23;;
3415;SDS011;1721;51.238;9.562;2024-02-26T06:32:19;2.90;;;1.27;;
3415;SDS011;1721;51.238;9.562;2024-02-26T06:34:44;2.43;;;1.20;;
3415;SDS011;1721;51.238;9.562;2024-02-26T06:37:10;3.13;;;1.43;;
3415;SDS011;1721;51.238;9.562;2024-02-26T06:39:35;5.07;;;2.30;;
3415;SDS011;1721;51.238;9.562;2024-02-26T06:42:01;4.80;;;1.77;;
3415;SDS011;1721;51.238;9.562;2024-02-26T06:44:27;8.87;;;3.03;;
3415;SDS011;1721;51.238;9.562;2024-02-26T06:46:57;5.65;;;2.47;;
3415;SDS011;1721;51.238;9.562;2024-02-26T06:49:23;2.78;;;1.15;;
3415;SDS011;1721;51.238;9.562;2024-02-26T06:51:49;13.00;;;3.80;;
3415;SDS011;1721;51.238;9.562;2024-02-26T06:54:14;9.00;;;2.73;;
3415;SDS011;1721;51.238;9.562;2024-02-26T06:56:40;6.90;;;1.40;;
3415;SDS011;1721;51.238;9.562;2024-02-26T06:59:05;6.50;;;1.77;;
3415;SDS011;1721;51.238;9.562;2024-02-26T07:01:31;4.80;;;1.70;;
3415;SDS011;1721;51.238;9.562;2024-02-26T07:03:56;3.27;;;1.27;;
3415;SDS011;1721;51.238;9.562;2024-02-26T07:06:22;3.20;;;1.53;;
3415;SDS011;1721;51.238;9.562;2024-02-26T07:08:47;8.20;;;1.37;;
3415;SDS011;1721;51.238;9.562;2024-02-26T07:11:13;4.17;;;1.60;;
3415;SDS011;1721;51.238;9.562;2024-02-26T07:13:39;5.57;;;2.20;;
3415;SDS011;1721;51.238;9.562;2024-02-26T07:16:04;3.53;;;1.23;;
3415;SDS011;1721;51.238;9.562;2024-02-26T07:18:30;7.90;;;1.70;;
3415;SDS011;1721;51.238;9.562;2024-02-26T07:20:56;7.93;;;1.70;;
3415;SDS011;1721;51.238;9.562;2024-02-26T07:23:21;3.87;;;1.53;;
3415;SDS011;1721;51.238;9.562;2024-02-26T07:25:47;4.97;;;1.43;;
3415;SDS011;1721;51.238;9.562;2024-02-26T07:28:14;7.00;;;2.00;;
3415;SDS011;1721;51.238;9.562;2024-02-26T07:30:40;4.27;;;2.20;;
3415;SDS011;1721;51.238;9.562;2024-02-26T07:33:05;3.97;;;1.70;;
3415;SDS011;1721;51.238;9.562;2024-02-26T07:35:32;6.40;;;2.92;;
3415;SDS011;1721;51.238;9.562;2024-02-26T07:37:58;7.25;;;2.67;;
3415;SDS011;1721;51.238;9.562;2024-02-26T07:40:24;6.13;;;2.50;;
3415;SDS011;1721;51.238;9.562;2024-02-26T07:42:49;6.50;;;2.80;;
3415;SDS011;1721;51.238;9.562;2024-02-26T07:45:15;6.30;;;2.10;;
3415;SDS011;1721;51.238;9.562;2024-02-26T07:47:42;7.13;;;2.78;;
3415;SDS011;1721;51.238;9.562;2024-02-26T07:50:08;4.70;;;1.90;;
3415;SDS011;1721;51.238;9.562;2024-02-26T07:52:34;7.03;;;2.97;;
3415;SDS011;1721;51.238;9.562;2024-02-26T07:54:59;6.47;;;3.40;;
3415;SDS011;1721;51.238;9.562;2024-02-26T07:57:25;5.37;;;2.63;;
3415;SDS011;1721;51.238;9.562;2024-02-26T07:59:50;4.23;;;2.10;;
3415;SDS011;1721;51.238;9.562;2024-02-26T08:02:16;5.67;;;2.30;;
3415;SDS011;1721;51.238;9.562;2024-02-26T08:04:42;12.77;;;3.70;;
3415;SDS011;1721;51.238;9.562;2024-02-26T08:07:07;6.30;;;3.30;;
3415;SDS011;1721;51.238;9.562;2024-02-26T08:09:33;8.40;;;3.90;;
3415;SDS011;1721;51.238;9.562;2024-02-26T08:11:58;9.67;;;4.07;;
3415;SDS011;1721;51.238;9.562;2024-02-26T08:14:24;7.67;;;3.50;;
3415;SDS011;1721;51.238;9.562;2024-02-26T08:16:50;7.63;;;2.83;;
3415;SDS011;1721;51.238;9.562;2024-02-26T08:19:15;9.30;;;3.07;;
3415;SDS011;1721;51.238;9.562;2024-02-26T08:21:42;6.43;;;2.45;;
3415;SDS011;1721;51.238;9.562;2024-02-26T08:24:08;10.90;;;4.47;;
3415;SDS011;1721;51.238;9.562;2024-02-26T08:26:33;12.30;;;5.03;;
3415;SDS011;1721;51.238;9.562;2024-02-26T08:28:59;8.23;;;2.93;;
3415;SDS011;1721;51.238;9.562;2024-02-26T08:31:24;8.83;;;4.10;;
3415;SDS011;1721;51.238;9.562;2024-02-26T08:33:50;10.07;;;4.30;;
3415;SDS011;1721;51.238;9.562;2024-02-26T08:36:16;11.43;;;3.63;;
3415;SDS011;1721;51.238;9.562;2024-02-26T08:38:41;9.70;;;3.93;;
3415;SDS011;1721;51.238;9.562;2024-02-26T08:41:07;11.10;;;4.00;;
3415;SDS011;1721;51.238;9.562;2024-02-26T08:43:32;13.87;;;5.20;;
3415;SDS011;1721;51.238;9.562;2024-02-26T08:45:58;10.43;;;4.33;;
3415;SDS011;1721;51.238;9.562;2024-02-26T08:48:24;10.80;;;4.00;;
3415;SDS011;1721;51.238;9.562;2024-02-26T08:50:49;10.10;;;4.00;;
3415;SDS011;1721;51.238;9.562;2024-02-26T08:53:15;10.93;;;4.57;;
3415;SDS011;1721;51.238;9.562;2024-02-26T08:55:40;12.00;;;4.27;;
3415;SDS011;1721;51.238;9.562;2024-02-26T08:58:06;8.13;;;3.50;;
3415;SDS011;1721;51.238;9.562;2024-02-26T09:00:31;11.30;;;4.37;;
3415;SDS011;1721;51.238;9.562;2024-02-26T09:02:57;13.30;;;5.10;;
3415;SDS011;1721;51.238;9.562;2024-02-26T09:05:22;9.07;;;3.93;;
3415;SDS011;1721;51.238;9.562;2024-02-26T09:07:48;14.63;;;5.20;;
3415;SDS011;1721;51.238;9.562;2024-02-26T09:10:13;11.80;;;4.63;;
3415;SDS011;1721;51.238;9.562;2024-02-26T09:12:39;12.93;;;4.90;;
3415;SDS011;1721;51.238;9.562;2024-02-26T09:15:05;8.30;;;3.47;;
3415;SDS011;1721;51.238;9.562;2024-02-26T09:17:32;13.60;;;4.32;;
3415;SDS011;1721;51.238;9.562;2024-02-26T09:19:58;10.53;;;4.00;;
3415;SDS011;1721;51.238;9.562;2024-02-26T09:22:23;8.07;;;3.50;;
3415;SDS011;1721;51.238;9.562;2024-02-26T09:24:49;10.13;;;3.37;;
3415;SDS011;1721;51.238;9.562;2024-02-26T09:27:16;9.00;;;3.40;;
3415;SDS011;1721;51.238;9.562;2024-02-26T09:29:42;9.27;;;3.58;;
3415;SDS011;1721;51.238;9.562;2024-02-26T09:32:07;7.63;;;2.53;;
3415;SDS011;1721;51.238;9.562;2024-02-26T09:34:33;8.63;;;3.40;;
3415;SDS011;1721;51.238;9.562;2024-02-26T09:36:59;4.73;;;2.20;;
3415;SDS011;1721;51.238;9.562;2024-02-26T09:39:25;6.90;;;2.47;;
3415;SDS011;1721;51.238;9.562;2024-02-26T09:41:52;10.77;;;3.53;;
3415;SDS011;1721;51.238;9.562;2024-02-26T09:44:19;8.27;;;3.97;;
3415;SDS011;1721;51.238;9.562;2024-02-26T09:46:48;11.38;;;3.47;;
3415;SDS011;1721;51.238;9.562;2024-02-26T09:49:17;10.32;;;3.85;;
3415;SDS011;1721;51.238;9.562;2024-02-26T09:51:44;7.82;;;3.80;;
3415;SDS011;1721;51.238;9.562;2024-02-26T09:54:12;7.82;;;3.30;;
3415;SDS011;1721;51.238;9.562;2024-02-26T09:56:39;6.63;;;3.20;;
3415;SDS011;1721;51.238;9.562;2024-02-26T09:59:06;8.90;;;3.13;;
3415;SDS011;1721;51.238;9.562;2024-02-26T10:01:38;12.30;;;4.15;;
3415;SDS011;1721;51.238;9.562;2024-02-26T10:04:06;11.35;;;4.40;;
3415;SDS011;1721;51.238;9.562;2024-02-26T10:06:33;12.50;;;4.70;;
3415;SDS011;1721;51.238;9.562;2024-02-26T10:09:01;6.55;;;2.95;;
3415;SDS011;1721;51.238;9.562;2024-02-26T10:11:31;9.65;;;3.75;;
3415;SDS011;1721;51.238;9.562;2024-02-26T10:13:57;10.57;;;3.70;;
3415;SDS011;1721;51.238;9.562;2024-02-26T10:16:24;10.80;;;3.20;;
3415;SDS011;1721;51.238;9.562;2024-02-26T10:18:50;10.43;;;4.25;;
3415;SDS011;1721;51.238;9.562;2024-02-26T10:21:19;8.18;;;3.53;;
3415;SDS011;1721;51.238;9.562;2024-02-26T10:23:45;11.20;;;4.05;;
3415;SDS011;1721;51.238;9.562;2024-02-26T10:26:12;10.40;;;3.42;;
3415;SDS011;1721;51.238;9.562;2024-02-26T10:28:39;7.18;;;2.75;;
3415;SDS011;1721;51.238;9.562;2024-02-26T10:31:06;12.10;;;4.22;;
3415;SDS011;1721;51.238;9.562;2024-02-26T10:33:38;7.97;;;3.60;;
3415;SDS011;1721;51.238;9.562;2024-02-26T10:36:04;8.05;;;2.75;;
3415;SDS011;1721;51.238;9.562;2024-02-26T10:38:31;6.38;;;2.80;;
3415;SDS011;1721;51.238;9.562;2024-02-26T10:40:57;9.32;;;3.45;;
3415;SDS011;1721;51.238;9.562;2024-02-26T10:43:25;5.60;;;2.97;;
3415;SDS011;1721;51.238;9.562;2024-02-26T10:45:50;7.15;;;2.83;;
3415;SDS011;1721;51.238;9.562;2024-02-26T10:48:16;7.50;;;3.00;;
3415;SDS011;1721;51.238;9.562;2024-02-26T10:50:42;11.80;;;3.88;;
3415;SDS011;1721;51.238;9.562;2024-02-26T10:53:16;9.40;;;4.53;;
3415;SDS011;1721;51.238;9.562;2024-02-26T10:55:45;10.30;;;3.97;;
3415;SDS011;1721;51.238;9.562;2024-02-26T10:58:24;9.15;;;3.45;;
3415;SDS011;1721;51.238;9.562;2024-02-26T11:00:51;7.57;;;3.47;;
3415;SDS011;1721;51.238;9.562;2024-02-26T11:03:17;8.40;;;2.92;;
3415;SDS011;1721;51.238;9.562;2024-02-26T11:05:46;13.02;;;4.05;;
3415;SDS011;1721;51.238;9.562;2024-02-26T11:08:13;7.85;;;3.20;;
3415;SDS011;1721;51.238;9.562;2024-02-26T11:10:39;11.88;;;3.50;;
3415;SDS011;1721;51.238;9.562;2024-02-26T11:13:06;11.02;;;4.10;;
3415;SDS011;1721;51.238;9.562;2024-02-26T11:15:37;11.05;;;4.30;;
3415;SDS011;1721;51.238;9.562;2024-02-26T11:18:03;12.20;;;3.63;;
3415;SDS011;1721;51.238;9.562;2024-02-26T11:20:29;11.82;;;4.50;;
3415;SDS011;1721;51.238;9.562;2024-02-26T11:22:57;11.85;;;4.80;;
3415;SDS011;1721;51.238;9.562;2024-02-26T11:25:22;12.40;;;4.60;;
3415;SDS011;1721;51.238;9.562;2024-02-26T11:27:58;12.47;;;3.20;;
3415;SDS011;1721;51.238;9.562;2024-02-26T11:30:29;12.77;;;4.25;;
3415;SDS011;1721;51.238;9.562;2024-02-26T11:32:58;12.07;;;4.03;;
3415;SDS011;1721;51.238;9.562;2024-02-26T11:35:24;15.70;;;5.43;;
3415;SDS011;1721;51.238;9.562;2024-02-26T11:37:54;14.40;;;4.60;;
3415;SDS011;1721;51.238;9.562;2024-02-26T11:40:21;9.30;;;3.08;;
3415;SDS011;1721;51.238;9.562;2024-02-26T11:42:48;12.35;;;4.78;;
3415;SDS011;1721;51.238;9.562;2024-02-26T11:48:04;8.02;;;3.33;;
3415;SDS011;1721;51.238;9.562;2024-02-26T11:50:40;7.80;;;3.80;;
3415;SDS011;1721;51.238;9.562;2024-02-26T11:55:48;9.18;;;3.38;;
3415;SDS011;1721;51.238;9.562;2024-02-26T11:58:33;9.68;;;3.92;;
3415;SDS011;1721;51.238;9.562;2024-02-26T12:00:59;10.33;;;4.17;;
3415;SDS011;1721;51.238;9.562;2024-02-26T12:03:24;9.03;;;3.70;;
3415;SDS011;1721;51.238;9.562;2024-02-26T12:05:51;11.15;;;3.35;;
3415;SDS011;1721;51.238;9.562;2024-02-26T12:08:16;9.43;;;3.45;;
3415;SDS011;1721;51.238;9.562;2024-02-26T12:10:44;9.13;;;3.50;;
3415;SDS011;1721;51.238;9.562;2024-02-26T12:13:12;7.55;;;3.22;;
3415;SDS011;1721;51.238;9.562;2024-02-26T12:18:07;11.15;;;3.70;;
3415;SDS011;1721;51.238;9.562;2024-02-26T12:20:35;9.43;;;3.60;;
3415;SDS011;1721;51.238;9.562;2024-02-26T12:23:01;9.80;;;3.67;;
3415;SDS011;1721;51.238;9.562;2024-02-26T12:25:29;8.93;;;4.03;;
3415;SDS011;1721;51.238;9.562;2024-02-26T12:27:56;12.43;;;3.88;;
3415;SDS011;1721;51.238;9.562;2024-02-26T12:30:22;8.82;;;3.70;;
3415;SDS011;1721;51.238;9.562;2024-02-26T12:32:48;10.88;;;4.05;;
3415;SDS011;1721;51.238;9.562;2024-02-26T12:35:15;12.95;;;4.30;;
3415;SDS011;1721;51.238;9.562;2024-02-26T12:37:42;11.60;;;4.55;;
3415;SDS011;1721;51.238;9.562;2024-02-26T12:40:09;15.35;;;3.70;;
3415;SDS011;1721;51.238;9.562;2024-02-26T12:42:35;11.88;;;4.88;;
3415;SDS011;1721;51.238;9.562;2024-02-26T12:45:08;14.82;;;3.95;;
3415;SDS011;1721;51.238;9.562;2024-02-26T12:50:04;6.65;;;3.10;;
3415;SDS011;1721;51.238;9.562;2024-02-26T12:52:33;11.55;;;4.25;;
3415;SDS011;1721;51.238;9.562;2024-02-26T12:55:01;8.13;;;4.00;;
3415;SDS011;1721;51.238;9.562;2024-02-26T12:57:31;11.55;;;4.50;;
3415;SDS011;1721;51.238;9.562;2024-02-26T12:59:58;8.75;;;3.22;;
3415;SDS011;1721;51.238;9.562;2024-02-26T13:02:28;13.82;;;5.03;;
3415;SDS011;1721;51.238;9.562;2024-02-26T13:04:55;10.57;;;4.55;;
3415;SDS011;1721;51.238;9.562;2024-02-26T13:07:21;8.70;;;3.75;;
3415;SDS011;1721;51.238;9.562;2024-02-26T13:09:47;10.40;;;3.63;;
3415;SDS011;1721;51.238;9.562;2024-02-26T13:12:13;13.43;;;4.70;;
3415;SDS011;1721;51.238;9.562;2024-02-26T13:14:39;17.98;;;5.20;;
3415;SDS011;1721;51.238;9.562;2024-02-26T13:17:05;11.50;;;4.50;;
3415;SDS011;1721;51.238;9.562;2024-02-26T13:19:31;13.30;;;4.27;;
3415;SDS011;1721;51.238;9.562;2024-02-26T13:22:03;8.73;;;3.83;;
3415;SDS011;1721;51.238;9.562;2024-02-26T13:24:32;11.55;;;4.18;;
3415;SDS011;1721;51.238;9.562;2024-02-26T13:27:01;10.18;;;4.32;;
3415;SDS011;1721;51.238;9.562;2024-02-26T13:29:30;9.05;;;4.03;;
3415;SDS011;1721;51.238;9.562;2024-02-26T13:31:58;10.10;;;3.97;;
3415;SDS011;1721;51.238;9.562;2024-02-26T13:34:24;8.50;;;4.13;;
3415;SDS011;1721;51.238;9.562;2024-02-26T13:36:51;11.75;;;4.07;;
3415;SDS011;1721;51.238;9.562;2024-02-26T13:39:27;13.07;;;3.50;;
3415;SDS011;1721;51.238;9.562;2024-02-26T13:41:53;11.80;;;4.15;;
3415;SDS011;1721;51.238;9.562;2024-02-26T13:44:19;9.73;;;3.80;;
3415;SDS011;1721;51.238;9.562;2024-02-26T13:46:46;12.90;;;3.40;;
3415;SDS011;1721;51.238;9.562;2024-02-26T13:49:12;8.40;;;4.10;;
3415;SDS011;1721;51.238;9.562;2024-02-26T13:51:38;8.53;;;3.77;;
3415;SDS011;1721;51.238;9.562;2024-02-26T13:54:04;9.73;;;4.07;;
3415;SDS011;1721;51.238;9.562;2024-02-26T13:56:30;8.43;;;3.63;;
3415;SDS011;1721;51.238;9.562;2024-02-26T13:58:56;9.18;;;3.10;;
3415;SDS011;1721;51.238;9.562;2024-02-26T14:01:23;8.60;;;3.50;;
3415;SDS011;1721;51.238;9.562;2024-02-26T14:03:48;14.70;;;4.20;;
3415;SDS011;1721;51.238;9.562;2024-02-26T14:06:14;11.80;;;3.57;;
3415;SDS011;1721;51.238;9.562;2024-02-26T14:08:40;11.73;;;4.73;;
3415;SDS011;1721;51.238;9.562;2024-02-26T14:11:05;13.87;;;4.67;;
3415;SDS011;1721;51.238;9.562;2024-02-26T14:13:31;10.47;;;3.60;;
3415;SDS011;1721;51.238;9.562;2024-02-26T14:15:57;16.50;;;3.70;;
3415;SDS011;1721;51.238;9.562;2024-02-26T14:18:22;9.40;;;3.80;;
3415;SDS011;1721;51.238;9.562;2024-02-26T14:20:48;11.17;;;4.40;;
3415;SDS011;1721;51.238;9.562;2024-02-26T14:23:14;9.80;;;3.83;;
3415;SDS011;1721;51.238;9.562;2024-02-26T14:25:39;7.80;;;2.60;;
3415;SDS011;1721;51.238;9.562;2024-02-26T14:28:05;8.63;;;3.93;;
3415;SDS011;1721;51.238;9.562;2024-02-26T14:30:31;11.43;;;3.33;;
3415;SDS011;1721;51.238;9.562;2024-02-26T14:32:57;10.65;;;4.53;;
3415;SDS011;1721;51.238;9.562;2024-02-26T14:35:23;11.30;;;4.43;;
3415;SDS011;1721;51.238;9.562;2024-02-26T14:37:48;16.80;;;4.53;;
3415;SDS011;1721;51.238;9.562;2024-02-26T14:40:15;14.68;;;5.22;;
3415;SDS011;1721;51.238;9.562;2024-02-26T14:42:41;10.15;;;4.28;;
3415;SDS011;1721;51.238;9.562;2024-02-26T14:45:07;9.30;;;4.57;;
3415;SDS011;1721;51.238;9.562;2024-02-26T14:47:37;18.92;;;4.53;;
3415;SDS011;1721;51.238;9.562;2024-02-26T14:50:04;11.80;;;4.50;;
3415;SDS011;1721;51.238;9.562;2024-02-26T14:52:30;15.77;;;5.47;;
3415;SDS011;1721;51.238;9.562;2024-02-26T14:54:56;10.25;;;4.30;;
3415;SDS011;1721;51.238;9.562;2024-02-26T14:57:22;12.27;;;4.25;;
3415;SDS011;1721;51.238;9.562;2024-02-26T14:59:48;9.40;;;3.95;;
3415;SDS011;1721;51.238;9.562;2024-02-26T15:02:15;14.20;;;4.88;;
3415;SDS011;1721;51.238;9.562;2024-02-26T15:04:41;9.63;;;3.77;;
3415;SDS011;1721;51.238;9.562;2024-02-26T15:07:06;17.37;;;5.33;;
3415;SDS011;1721;51.238;9.562;2024-02-26T15:09:32;9.07;;;3.80;;
3415;SDS011;1721;51.238;9.562;2024-02-26T15:11:57;7.70;;;3.53;;
3415;SDS011;1721;51.238;9.562;2024-02-26T15:14:23;11.87;;;4.97;;
3415;SDS011;1721;51.238;9.562;2024-02-26T15:16:49;10.10;;;4.13;;